• Join FlightAware (Why Join?)
  • Login
  • US Flag 
12:53AM EDT


 

Airport Tracker/Info


-or-


 

Live Flight TrackerFlight Track Log ✈ SWA565 ✈ 12-Apr-2013 ✈ KBWI - KBNA

Flight Track Log - Related Links

Times and Time Zones

All times are in EDT time to prevent confusion due to time zone crossing. See the SWA565 flight status page for this flight to view local times or setup timezone preferences in your user account.

Time Position Orientation Groundspeed Altitude Reporting Facility
EDT Latitude Longitude Course Direction KTS MPH feet Rate Location/Type
11:02PM 39.1833 -76.7667 314° West 201 231 3,900  Level Potomac TRACON
11:03PM 39.2333 -76.8333 314° West 236 272 5,700 2,820 Climbing Potomac TRACON
11:05PM 39.2558 -76.9586 283° West 241 277 11,400 3,900 Climbing Washington Center
11:06PM 39.2256 -77.0492 247° West 239 275 15,600 3,120 Climbing Washington Center
11:07PM 39.1931 -77.1475 247° West 265 305 17,700 2,460 Climbing Washington Center
11:08PM 39.1644 -77.2567 251° West 290 334 20,600 3,180 Climbing Washington Center
11:09PM 39.1233 -77.3708 245° Southwest 329 379 24,100 3,060 Climbing Washington Center
11:10PM 39.0861 -77.4875 248° West 348 400 26,700 1,440 Climbing Washington Center
11:11PM 39.0444 -77.6122 247° West 353 406 27,000 120 Climbing Washington Center
11:12PM 39.0114 -77.7153 248° West 347 399 27,000 840 Level Washington Center
11:13PM 38.9714 -77.8450 248° West 353 406 28,700 1,980 Climbing Washington Center
11:14PM 38.9317 -77.9639 247° West 359 413 31,000 2,340 Climbing Washington Center
11:15PM 38.8939 -78.0800 247° West 359 413 33,400 2,160 Climbing Washington Center
11:16PM 38.8581 -78.1936 248° West 359 413 35,400 1,260 Climbing Washington Center
11:17PM 38.8514 -78.3158 266° West 342 394 36,000 420 Climbing Washington Center
11:18PM 38.8483 -78.4411 268° West 348 400 36,300 840 Climbing Washington Center
11:19PM 38.8475 -78.5664 270° West 348 400 37,700 1,380 Climbing Washington Center
11:20PM 38.8464 -78.6917 269° West 348 400 39,100 1,140 Climbing Washington Center
11:21PM 38.8347 -78.8136 263° West 348 400 40,000 420 Climbing Washington Center
11:22PM 38.8147 -78.9406 259° West 353 406 40,000  Level Washington Center
11:23PM 38.7967 -79.0597 259° West 353 406 40,000  Level Washington Center
11:24PM 38.7764 -79.1814 258° West 353 406 40,000  Level Washington Center
11:25PM 38.7667 -79.2981 264° West 358 412 40,000  Level Washington Center
11:26PM 38.7436 -79.4300 257° West 358 412 40,000  Level Washington Center
11:27PM 38.7253 -79.5514 259° West 358 412 40,000  Level Washington Center
11:28PM 38.7044 -79.6725 258° West 351 404 40,000  Level Washington Center
11:29PM 38.6861 -79.7833 258° West 351 404 40,000  Level Washington Center
11:30PM 38.6672 -79.9044 259° West 351 404 40,000  Level Washington Center
11:31PM 38.6481 -80.0283 259° West 351 404 40,000  Level Washington Center
11:32PM 38.6164 -80.2064 257° West 356 410 40,000  Level Indianapolis Center
11:33PM 38.5964 -80.3319 259° West 356 410 40,000  Level Indianapolis Center
11:34PM 38.5756 -80.4558 258° West 358 412 40,000  Level Indianapolis Center
11:35PM 38.5553 -80.5800 258° West 357 411 40,000  Level Indianapolis Center
11:36PM 38.5344 -80.7056 258° West 360 414 40,000  Level Indianapolis Center
11:37PM 38.5125 -80.8303 257° West 359 413 40,000  Level Indianapolis Center
11:39PM 38.4919 -80.9553 258° West 358 412 40,000  Level Indianapolis Center
11:40PM 38.4700 -81.0814 258° West 359 413 40,000  Level Indianapolis Center
11:41PM 38.4486 -81.2050 258° West 357 411 40,000  Level Indianapolis Center
11:42PM 38.4219 -81.3553 257° West 358 412 40,000  Level Indianapolis Center
11:43PM 38.4047 -81.4558 258° West 359 413 40,000  Level Indianapolis Center
11:44PM 38.3786 -81.6081 258° West 362 417 40,000  Level Indianapolis Center
11:45PM 38.3567 -81.7322 257° West 359 413 40,000  Level Indianapolis Center
11:46PM 38.3244 -81.8542 251° West 358 412 40,000  Level Indianapolis Center
11:47PM 38.2922 -81.9753 251° West 361 415 40,000  Level Indianapolis Center
11:48PM 38.2581 -82.0972 250° West 364 419 40,000  Level Indianapolis Center
11:49PM 38.2233 -82.2186 250° West 364 419 40,000  Level Indianapolis Center
11:50PM 38.1900 -82.3408 251° West 365 420 40,000  Level Indianapolis Center
11:51PM 38.1547 -82.4614 250° West 366 421 40,000  Level Indianapolis Center
11:52PM 38.1217 -82.5761 250° West 361 415 40,000  Level Indianapolis Center
11:53PM 38.0869 -82.6944 250° West 359 413 40,000  Level Indianapolis Center
11:54PM 38.0533 -82.8133 250° West 359 413 40,000  Level Indianapolis Center
11:55PM 38.0197 -82.9306 250° West 357 411 40,000  Level Indianapolis Center
11:56PM 37.9719 -83.0394 241° Southwest 356 410 40,000 -360 Level Indianapolis Center
11:57PM 37.9094 -83.1611 237° Southwest 355 409 39,300 -840 Descending Indianapolis Center
11:58PM 37.8567 -83.2658 237° Southwest 354 407 38,400 -900 Descending Indianapolis Center
11:59PM 37.8025 -83.3714 237° Southwest 356 410 37,500 -960 Descending Indianapolis Center
12:00AM 37.7494 -83.4733 237° Southwest 352 405 36,500 -780 Descending Indianapolis Center
12:01AM 37.6967 -83.5742 237° Southwest 346 398 36,000 -300 Descending Indianapolis Center
12:02AM 37.6436 -83.6756 237° Southwest 347 399 36,000  Level Indianapolis Center
12:03AM 37.5903 -83.7778 237° Southwest 349 402 36,000  Level Indianapolis Center
12:04AM 37.5367 -83.8811 237° Southwest 350 403 36,000  Level Indianapolis Center
12:05AM 37.4825 -83.9819 236° Southwest 349 402 36,000  Level Indianapolis Center
12:06AM 37.4283 -84.0856 237° Southwest 353 406 36,000 -240 Level Indianapolis Center
12:07AM 37.3750 -84.1872 237° Southwest 351 404 35,600 -720 Descending Indianapolis Center
12:08AM 37.3236 -84.2831 236° Southwest 337 388 34,600 -1,020 Descending Indianapolis Center
12:09AM 37.2731 -84.3786 236° Southwest 330 380 33,600 -1,020 Descending Indianapolis Center
12:10AM 37.2219 -84.4761 237° Southwest 333 383 32,600 -1,140 Descending Indianapolis Center
12:11AM 37.1633 -84.5875 237° Southwest 329 379 31,400 -1,140 Descending Indianapolis Center
12:12AM 37.1125 -84.6789 235° Southwest 322 371 30,400 -1,080 Descending Indianapolis Center
12:13AM 37.0639 -84.7683 236° Southwest 313 360 29,300 -1,020 Descending Indianapolis Center
12:14AM 37.0197 -84.8517 236° Southwest 308 354 28,400 -960 Descending Indianapolis Center
12:15AM 36.9717 -84.9381 235° Southwest 305 351 27,400 -1,020 Descending Indianapolis Center
12:16AM 36.9261 -85.0239 236° Southwest 298 343 26,400 -1,020 Descending Indianapolis Center
12:17AM 36.8847 -85.1136 240° Southwest 298 343 25,400 -1,020 Descending Indianapolis Center
12:18AM 36.8442 -85.2011 240° Southwest 294 338 24,400 -1,020 Descending Indianapolis Center
12:19AM 36.8042 -85.2875 240° Southwest 288 331 23,400 -1,020 Descending Indianapolis Center
12:20AM 36.7639 -85.3731 240° Southwest 287 330 22,400 -900 Descending Indianapolis Center
12:21AM 36.7319 -85.4356 237° Southwest 297 342 22,000 -300 Descending Memphis Center
12:22AM 36.6978 -85.5153 242° Southwest 292 336 22,000  Level Memphis Center
12:23AM 36.6511 -85.6058 237° Southwest 292 336 22,000  Level Memphis Center
12:24AM 36.6106 -85.6911 239° Southwest 292 336 22,000 -900 Level Memphis Center
12:25AM 36.5719 -85.7733 240° Southwest 286 329 20,200 -1,380 Descending Memphis Center
12:26AM 36.5336 -85.8608 241° Southwest 286 329 19,300 -1,320 Descending Memphis Center
12:27AM 36.4928 -85.9456 239° Southwest 292 336 17,600 -1,800 Descending Memphis Center
12:28AM 36.4542 -86.0303 240° Southwest 287 330 15,800 -1,800 Descending Memphis Center
12:29AM 36.4114 -86.1178 239° Southwest 292 336 14,000 -1,860 Descending Memphis Center
12:30AM 36.3683 -86.2050 239° Southwest 292 336 12,100 -1,800 Descending Memphis Center
12:31AM 36.3294 -86.2869 240° Southwest 292 336 10,400 -1,500 Descending Memphis Center
12:32AM 36.2922 -86.3633 239° Southwest 277 319 9,200 -1,200 Descending Memphis Center
12:33AM 36.2589 -86.4319 239° Southwest 266 306 8,000 -1,320 Descending Memphis Center
12:34AM 36.2217 -86.5058 238° Southwest 260 299 6,600 -1,200 Descending Memphis Center
12:35AM 36.1542 -86.5422 204° Southwest 254 292 5,700 -900 Descending Memphis Center
12:36AM 36.0922 -86.5683 199° South 242 278 4,900 -780 Descending Memphis Center
12:37AM 36.0344 -86.5889 196° South 221 254 4,200 -720 Descending Memphis Center
12:38AM 35.9958 -86.6217 214° Southwest 186 214 3,500 -720 Descending Memphis Center
12:39AM 36.0333 -86.7000 301° West 153 176 2,200 -780 Descending Nashville TRACON
12:40AM 36.0667 -86.6833 22° Northeast 140 161 1,400 -780 Descending Nashville TRACON
12:41AM 36.1167 -86.6667 15° North 129 148 700 -720 Descending Nashville TRACON
12:43AM 36.1245 -86.6782 198° South  Level Estimated
12:50AM 36.1245 -86.6782 18° North  Level Estimated
12:51AM 36.1245 -86.6782 18° North  Level Estimated
12:52AM 36.1245 -86.6782 18° North  Level Estimated
12:53AM 36.1245 -86.6782 18° North  Level Estimated
12:54AM 36.1245 -86.6782 18° North  Level Estimated
12:55AM 36.1245 -86.6782 18° North  Level Estimated
12:56AM 36.1245 -86.6782 18° North  Level Estimated
12:57AM 36.1245 -86.6782 18° North  Level Estimated
12:58AM 36.1245 -86.6782 18° North  Level Estimated